createdAt,value
2022-10-19T00:00:47.266Z,11.43
2022-10-19T00:01:47.328Z,11.44
2022-10-19T00:02:47.266Z,11.44
2022-10-19T00:03:47.261Z,11.44
2022-10-19T00:04:47.224Z,11.43
2022-10-19T00:05:47.207Z,11.40
2022-10-19T00:06:47.190Z,11.37
2022-10-19T00:07:47.186Z,11.34
2022-10-19T00:08:47.177Z,11.31
2022-10-19T00:09:47.176Z,11.33
2022-10-19T00:10:47.139Z,11.33
2022-10-19T00:11:47.118Z,11.30
2022-10-19T00:13:47.127Z,11.27
2022-10-19T00:14:47.087Z,11.26
2022-10-19T00:15:47.066Z,11.26
2022-10-19T00:16:47.056Z,11.25
2022-10-19T00:17:47.027Z,11.20
2022-10-19T00:18:47.048Z,11.16
2022-10-19T00:19:47.007Z,11.13
2022-10-19T00:20:46.997Z,11.13
2022-10-19T00:21:47.022Z,11.13
2022-10-19T00:22:47.017Z,11.12
2022-10-19T00:23:46.975Z,11.05
2022-10-19T00:24:46.955Z,11.05
2022-10-19T00:25:46.937Z,11.05
2022-10-19T00:26:46.926Z,11.07
2022-10-19T00:27:46.907Z,11.07
2022-10-19T00:28:46.995Z,11.02
2022-10-19T00:29:46.888Z,10.97
2022-10-19T00:30:46.879Z,10.94
2022-10-19T00:31:46.848Z,10.90
2022-10-19T00:32:46.847Z,10.97
2022-10-19T00:33:46.850Z,10.97
2022-10-19T00:34:46.817Z,11.00
2022-10-19T00:35:46.807Z,11.01
2022-10-19T00:36:46.797Z,11.01
2022-10-19T00:37:46.780Z,10.95
2022-10-19T00:38:46.778Z,10.90
2022-10-19T00:39:46.807Z,10.86
2022-10-19T00:40:46.738Z,10.80
2022-10-19T00:41:46.719Z,10.79
2022-10-19T00:42:46.746Z,10.76
2022-10-19T00:43:46.713Z,10.75
2022-10-19T00:44:46.688Z,10.72
2022-10-19T00:45:46.668Z,10.72
2022-10-19T00:46:46.658Z,10.72
2022-10-19T00:47:46.648Z,10.69
2022-10-19T00:48:46.709Z,10.68
2022-10-19T00:49:46.610Z,10.67
2022-10-19T00:50:46.619Z,10.61
2022-10-19T00:51:46.598Z,10.58
2022-10-19T00:52:46.614Z,10.57
2022-10-19T00:53:46.587Z,10.55
2022-10-19T00:54:46.557Z,10.57
2022-10-19T00:55:46.557Z,10.58
2022-10-19T00:56:46.530Z,10.61
2022-10-19T00:57:46.620Z,10.61
2022-10-19T00:58:46.522Z,10.62
2022-10-19T00:59:46.479Z,10.65
2022-10-19T01:00:46.595Z,10.69
2022-10-19T01:01:46.449Z,10.67
2022-10-19T01:02:46.472Z,10.67
2022-10-19T01:03:46.443Z,10.65
2022-10-19T01:04:46.420Z,10.64
2022-10-19T01:05:46.399Z,10.62
2022-10-19T01:06:46.425Z,10.65
2022-10-19T01:07:46.379Z,10.68
2022-10-19T01:08:46.398Z,10.72
2022-10-19T01:09:46.350Z,10.77
2022-10-19T01:10:46.351Z,10.76
2022-10-19T01:11:46.331Z,10.72
2022-10-19T01:12:46.320Z,10.71
2022-10-19T01:13:46.310Z,10.71
2022-10-19T01:14:46.340Z,10.72
2022-10-19T01:15:46.316Z,10.72
2022-10-19T01:16:46.269Z,10.72
2022-10-19T01:17:46.269Z,10.72
2022-10-19T01:18:46.239Z,10.75
2022-10-19T01:19:46.239Z,10.75
2022-10-19T01:20:46.199Z,10.72
2022-10-19T01:21:46.216Z,10.72
2022-10-19T01:22:46.198Z,10.72
2022-10-19T01:23:46.169Z,10.69
2022-10-19T01:24:46.234Z,10.65
2022-10-19T01:25:46.145Z,10.68
2022-10-19T01:26:46.129Z,10.65
2022-10-19T01:27:46.128Z,10.62
2022-10-19T01:28:46.207Z,10.58
2022-10-19T01:31:32.918Z,10.57
2022-10-19T01:31:56.715Z,10.57
2022-10-19T01:32:56.715Z,10.53
2022-10-19T01:34:56.708Z,10.53
2022-10-19T01:35:56.669Z,10.55
2022-10-19T01:36:56.656Z,10.55
2022-10-19T01:37:56.636Z,10.53
2022-10-19T01:38:56.626Z,10.49
2022-10-19T01:39:56.626Z,10.48
2022-10-19T01:40:56.595Z,10.42
2022-10-19T01:41:56.585Z,10.39
2022-10-19T01:42:56.581Z,10.39
2022-10-19T01:43:56.556Z,10.33
2022-10-19T01:44:56.556Z,10.24
2022-10-19T01:45:56.527Z,10.23
2022-10-19T01:46:56.517Z,10.18
2022-10-19T01:47:56.506Z,10.15
2022-10-19T01:48:56.506Z,10.15
2022-10-19T01:49:56.486Z,10.17
2022-10-19T01:50:56.475Z,10.18
2022-10-19T01:51:56.460Z,10.18
2022-10-19T01:52:56.438Z,10.21
2022-10-19T01:53:56.426Z,10.23
2022-10-19T01:54:56.436Z,10.21
2022-10-19T01:55:56.404Z,10.24
2022-10-19T01:56:56.376Z,10.23
2022-10-19T01:57:56.376Z,10.23
2022-10-19T01:58:56.357Z,10.24
2022-10-19T01:59:56.360Z,10.23
2022-10-19T02:00:56.404Z,10.24
2022-10-19T02:01:56.307Z,10.23
2022-10-19T02:02:56.307Z,10.23
2022-10-19T02:03:56.288Z,10.20
2022-10-19T02:04:56.297Z,10.21
2022-10-19T02:05:56.256Z,10.20
2022-10-19T02:06:56.255Z,10.18
2022-10-19T02:07:56.256Z,10.17
2022-10-19T02:08:56.226Z,10.17
2022-10-19T02:09:56.217Z,10.18
2022-10-19T02:10:56.215Z,10.21
2022-10-19T02:11:57.177Z,10.21
2022-10-19T02:12:56.187Z,10.21
2022-10-19T02:13:56.146Z,10.17
2022-10-19T02:14:56.190Z,10.17
2022-10-19T02:15:56.127Z,10.15
2022-10-19T02:16:56.136Z,10.10
2022-10-19T02:17:56.100Z,10.00
2022-10-19T02:18:56.088Z,9.95
2022-10-19T02:19:56.095Z,9.92
2022-10-19T02:20:56.078Z,9.92
2022-10-19T02:21:56.046Z,9.92
2022-10-19T02:22:56.037Z,9.94
2022-10-19T02:23:56.027Z,9.94
2022-10-19T02:24:56.026Z,9.95
2022-10-19T02:25:55.996Z,9.97
2022-10-19T02:26:55.987Z,9.95
2022-10-19T02:27:55.967Z,9.95
2022-10-19T02:28:55.971Z,9.99
2022-10-19T02:29:55.957Z,9.99
2022-10-19T02:30:55.926Z,9.99
2022-10-19T02:31:55.907Z,9.97
2022-10-19T02:32:55.897Z,9.97
2022-10-19T02:33:55.878Z,9.94
2022-10-19T02:34:55.890Z,9.94
2022-10-19T02:35:55.867Z,9.94
2022-10-19T02:36:55.868Z,9.95
2022-10-19T02:37:55.848Z,9.97
2022-10-19T02:38:55.820Z,9.97
2022-10-19T02:39:55.810Z,9.97
2022-10-19T02:40:55.813Z,9.95
2022-10-19T02:41:55.778Z,9.97
2022-10-19T02:42:55.757Z,9.97
2022-10-19T02:43:55.748Z,9.95
2022-10-19T02:44:55.746Z,9.91
2022-10-19T02:45:55.728Z,9.88
2022-10-19T02:46:55.756Z,9.88
2022-10-19T02:47:55.678Z,9.87
2022-10-19T02:48:55.689Z,9.87
2022-10-19T02:49:55.677Z,9.87
2022-10-19T02:50:55.677Z,9.87
2022-10-19T02:51:55.647Z,9.87
2022-10-19T02:52:55.657Z,9.88
2022-10-19T02:53:55.629Z,9.87
2022-10-19T02:54:55.608Z,9.85
2022-10-19T02:55:55.598Z,9.82
2022-10-19T02:56:55.592Z,9.82
2022-10-19T02:58:02.754Z,9.81
2022-10-19T02:58:55.563Z,9.81
2022-10-19T02:59:55.548Z,9.76
2022-10-19T03:00:55.598Z,9.74
2022-10-19T03:01:55.530Z,9.74
2022-10-19T03:02:55.507Z,9.72
2022-10-19T03:03:55.494Z,9.69
2022-10-19T03:04:55.489Z,9.69
2022-10-19T03:05:55.466Z,9.67
2022-10-19T03:06:55.456Z,9.67
2022-10-19T03:07:55.444Z,9.72
2022-10-19T03:08:55.454Z,9.73
2022-10-19T03:09:55.444Z,9.70
2022-10-19T03:10:55.442Z,9.70
2022-10-19T03:11:55.393Z,9.73
2022-10-19T03:12:55.393Z,9.80
2022-10-19T03:13:55.360Z,9.80
2022-10-19T03:14:55.364Z,9.77
2022-10-19T03:15:55.325Z,9.74
2022-10-19T03:16:55.356Z,9.69
2022-10-19T03:17:55.303Z,9.66
2022-10-19T03:18:55.303Z,9.62
2022-10-19T03:19:55.292Z,9.59
2022-10-19T03:20:58.232Z,9.59
2022-10-19T03:21:55.275Z,9.62
2022-10-19T03:22:55.246Z,9.64
2022-10-19T03:23:55.234Z,9.66
2022-10-19T03:24:55.223Z,9.67
2022-10-19T03:25:55.204Z,9.67
2022-10-19T03:26:55.214Z,9.69
2022-10-19T03:27:55.189Z,9.70
2022-10-19T03:28:55.226Z,9.72
2022-10-19T03:29:55.142Z,9.73
2022-10-19T03:30:55.145Z,9.73
2022-10-19T03:31:55.143Z,9.76
2022-10-19T03:32:55.114Z,9.76
2022-10-19T03:33:55.106Z,9.77
2022-10-19T03:34:55.093Z,9.77
2022-10-19T03:35:55.073Z,9.76
2022-10-19T03:36:55.075Z,9.74
2022-10-19T03:37:55.044Z,9.77
2022-10-19T03:38:55.035Z,9.77
2022-10-19T03:39:55.014Z,9.77
2022-10-19T03:40:55.006Z,9.81
2022-10-19T03:41:55.011Z,9.84
2022-10-19T03:42:54.975Z,9.88
2022-10-19T03:43:55.011Z,9.91
2022-10-19T03:44:54.955Z,9.94
2022-10-19T03:45:54.994Z,9.92
2022-10-19T03:46:54.944Z,9.94
2022-10-19T03:47:54.924Z,9.99
2022-10-19T03:48:54.895Z,10.00
2022-10-19T03:49:54.876Z,10.02
2022-10-19T03:50:54.875Z,9.99
2022-10-19T03:51:54.887Z,9.99
2022-10-19T03:52:54.890Z,10.02
2022-10-19T03:53:54.835Z,10.05
2022-10-19T03:54:54.876Z,10.07
2022-10-19T03:55:54.804Z,10.09
2022-10-19T03:56:54.803Z,10.13
2022-10-19T03:57:54.772Z,10.15
2022-10-19T03:58:54.777Z,10.15
2022-10-19T03:59:54.746Z,10.12
2022-10-19T04:00:54.788Z,10.12
2022-10-19T04:01:54.742Z,10.12
2022-10-19T04:02:54.712Z,10.12
2022-10-19T04:03:54.686Z,10.10
2022-10-19T04:04:54.696Z,10.09
2022-10-19T04:05:54.666Z,10.09
2022-10-19T04:06:54.674Z,10.06
2022-10-19T04:07:54.645Z,10.06
2022-10-19T04:08:54.641Z,10.05
2022-10-19T04:09:54.623Z,10.00
2022-10-19T04:10:54.615Z,10.00
2022-10-19T04:11:54.605Z,9.97
2022-10-19T04:12:54.615Z,9.97
2022-10-19T04:13:54.556Z,9.97
2022-10-19T04:14:57.431Z,9.97
2022-10-19T04:15:54.544Z,9.95
2022-10-19T04:16:54.534Z,9.92
2022-10-19T04:17:54.506Z,9.88
2022-10-19T04:18:54.494Z,9.85
2022-10-19T04:19:54.485Z,9.82
2022-10-19T04:20:54.476Z,9.80
2022-10-19T04:21:54.494Z,9.77
2022-10-19T04:22:54.446Z,9.74
2022-10-19T04:23:54.437Z,9.69
2022-10-19T04:24:54.423Z,9.66
2022-10-19T04:25:54.416Z,9.63
2022-10-19T04:26:54.420Z,9.59
2022-10-19T04:27:54.385Z,9.58
2022-10-19T04:28:54.445Z,9.55
2022-10-19T04:29:54.345Z,9.52
2022-10-19T04:30:54.347Z,9.49
2022-10-19T04:31:54.328Z,9.49
2022-10-19T04:32:54.336Z,9.54
2022-10-19T04:33:54.300Z,9.55
2022-10-19T04:34:54.286Z,9.56
2022-10-19T04:35:54.286Z,9.62
2022-10-19T04:36:54.266Z,9.62
2022-10-19T04:37:54.247Z,9.56
2022-10-19T04:38:54.233Z,9.56
2022-10-19T04:39:54.217Z,9.54
2022-10-19T04:40:54.207Z,9.51
2022-10-19T04:41:54.223Z,9.45
2022-10-19T04:42:54.196Z,9.45
2022-10-19T04:43:54.167Z,9.47
2022-10-19T04:44:54.148Z,9.51
2022-10-19T04:45:54.146Z,9.54
2022-10-19T04:46:54.117Z,9.54
2022-10-19T04:47:54.128Z,9.54
2022-10-19T04:48:54.106Z,9.51
2022-10-19T04:49:54.084Z,9.48
2022-10-19T04:50:54.066Z,9.49
2022-10-19T04:51:54.068Z,9.51
2022-10-19T04:52:54.107Z,9.49
2022-10-19T04:53:56.927Z,9.44
2022-10-19T04:54:55.008Z,9.42
2022-10-19T04:55:54.007Z,9.37
2022-10-19T04:56:54.038Z,9.24
2022-10-19T04:57:54.009Z,9.16
2022-10-19T04:58:53.964Z,9.05
2022-10-19T04:59:53.956Z,8.96
2022-10-19T05:00:54.027Z,8.93
2022-10-19T05:01:53.947Z,8.95
2022-10-19T05:02:53.935Z,8.95
2022-10-19T05:03:54.058Z,8.90
2022-10-19T05:04:53.877Z,8.90
2022-10-19T05:05:53.876Z,8.90
2022-10-19T05:06:53.857Z,8.96
2022-10-19T05:07:53.867Z,9.00
2022-10-19T05:08:53.830Z,9.03
2022-10-19T05:09:53.826Z,9.12
2022-10-19T05:10:53.797Z,9.19
2022-10-19T05:11:53.788Z,9.22
2022-10-19T05:12:53.790Z,9.22
2022-10-19T05:13:53.768Z,9.47
2022-10-19T05:14:53.747Z,9.90
2022-10-19T05:15:53.737Z,10.18
2022-10-19T05:16:53.738Z,10.65
2022-10-19T05:17:53.727Z,10.58
2022-10-19T05:18:53.689Z,10.65
2022-10-19T05:19:53.808Z,10.41
2022-10-19T05:20:53.666Z,10.31
2022-10-19T05:21:53.676Z,10.21
2022-10-19T05:22:53.856Z,10.17
2022-10-19T05:23:53.843Z,10.06
2022-10-19T05:24:57.360Z,10.00
2022-10-19T05:25:53.759Z,9.87
2022-10-19T05:26:53.595Z,9.87
2022-10-19T05:27:53.594Z,9.97
2022-10-19T05:28:53.673Z,10.12
2022-10-19T05:29:53.556Z,10.10
2022-10-19T05:30:53.535Z,10.27
2022-10-19T05:31:53.525Z,10.39
2022-10-19T05:32:53.517Z,10.39
2022-10-19T05:33:53.564Z,10.31
2022-10-19T05:34:53.476Z,10.24
2022-10-19T05:35:53.457Z,10.12
2022-10-19T05:36:53.446Z,9.94
2022-10-19T05:37:53.797Z,9.81
2022-10-19T05:38:53.437Z,9.72
2022-10-19T05:39:53.417Z,9.59
2022-10-19T05:40:53.653Z,9.52
2022-10-19T05:41:53.390Z,9.47
2022-10-19T05:42:53.367Z,9.40
2022-10-19T05:43:53.368Z,9.34
2022-10-19T05:44:53.809Z,9.26
2022-10-19T05:45:53.337Z,9.16
2022-10-19T05:46:53.325Z,9.13
2022-10-19T05:47:53.297Z,9.08
2022-10-19T05:48:53.309Z,9.03
2022-10-19T05:49:53.286Z,9.00
2022-10-19T05:50:53.262Z,8.96
2022-10-19T05:51:53.268Z,8.93
2022-10-19T05:52:53.247Z,8.96
2022-10-19T05:53:53.238Z,8.99
2022-10-19T05:54:53.238Z,9.03
2022-10-19T05:55:53.203Z,9.05
2022-10-19T05:56:53.188Z,9.02
2022-10-19T05:57:53.177Z,8.99
2022-10-19T05:58:53.168Z,8.95
2022-10-19T05:59:53.146Z,8.96
2022-10-19T06:00:53.141Z,8.93
2022-10-19T06:01:53.689Z,8.90
2022-10-19T06:02:58.180Z,8.92
2022-10-19T06:03:54.099Z,8.90
2022-10-19T06:04:53.067Z,8.89
2022-10-19T06:05:53.058Z,8.89
2022-10-19T06:06:53.048Z,8.86
2022-10-19T06:07:53.044Z,8.81
2022-10-19T06:08:53.032Z,8.81
2022-10-19T06:09:53.018Z,8.82
2022-10-19T06:10:52.989Z,8.86
2022-10-19T06:11:52.988Z,8.89
2022-10-19T06:12:52.968Z,8.92
2022-10-19T06:13:52.958Z,8.93
2022-10-19T06:14:52.961Z,8.93
2022-10-19T06:15:52.939Z,8.95
2022-10-19T06:16:52.907Z,8.95
2022-10-19T06:17:52.910Z,8.96
2022-10-19T06:18:52.901Z,8.95
2022-10-19T06:19:52.869Z,8.99
2022-10-19T06:20:52.869Z,8.99
2022-10-19T06:21:52.865Z,9.00
2022-10-19T06:22:52.829Z,9.03
2022-10-19T06:23:52.858Z,9.05
2022-10-19T06:24:52.817Z,9.03
2022-10-19T06:25:52.779Z,9.05
2022-10-19T06:26:52.778Z,9.05
2022-10-19T06:27:52.818Z,9.03
2022-10-19T06:28:52.758Z,9.00
2022-10-19T06:29:52.743Z,8.99
2022-10-19T06:30:52.805Z,8.99
2022-10-19T06:31:52.710Z,8.99
2022-10-19T06:32:52.789Z,8.97
2022-10-19T06:33:52.735Z,8.97
2022-10-19T06:34:56.426Z,8.93
2022-10-19T06:35:52.666Z,8.90
2022-10-19T06:36:52.649Z,8.84
2022-10-19T06:37:52.628Z,8.87
2022-10-19T06:38:52.639Z,8.86
2022-10-19T06:39:52.648Z,8.89
2022-10-19T06:40:52.608Z,8.90
2022-10-19T06:41:52.706Z,8.92
2022-10-19T06:42:52.569Z,8.95
2022-10-19T06:43:52.656Z,8.96
2022-10-19T06:44:52.540Z,8.93
2022-10-19T06:45:52.651Z,8.93
2022-10-19T06:46:52.513Z,8.90
2022-10-19T06:47:52.487Z,8.90
2022-10-19T06:48:52.502Z,8.89
2022-10-19T06:49:52.476Z,8.92
2022-10-19T06:50:52.440Z,8.93
2022-10-19T06:51:52.448Z,9.00
2022-10-19T06:52:52.416Z,8.99
2022-10-19T06:53:56.661Z,8.95
2022-10-19T06:54:52.407Z,8.97
2022-10-19T06:55:52.385Z,9.02
2022-10-19T06:56:52.378Z,9.08
2022-10-19T06:57:52.370Z,9.11
2022-10-19T06:58:52.415Z,9.15
2022-10-19T06:59:53.045Z,9.18
2022-10-19T07:00:52.367Z,9.18
2022-10-19T07:01:52.308Z,9.16
2022-10-19T07:02:52.256Z,9.16
2022-10-19T07:03:52.284Z,9.16
2022-10-19T07:04:52.286Z,9.19
2022-10-19T07:05:52.240Z,9.18
2022-10-19T07:06:52.311Z,9.18
2022-10-19T07:07:52.280Z,9.19
2022-10-19T07:08:52.188Z,9.24
2022-10-19T07:09:52.195Z,9.24
2022-10-19T07:10:52.174Z,9.24
2022-10-19T07:11:52.157Z,9.24
2022-10-19T07:12:52.170Z,9.30
2022-10-19T07:13:52.150Z,9.31
2022-10-19T07:14:52.125Z,9.30
2022-10-19T07:15:52.114Z,9.33
2022-10-19T07:16:52.078Z,9.34
2022-10-19T07:17:52.087Z,9.36
2022-10-19T07:18:52.092Z,9.37
2022-10-19T07:19:52.073Z,9.36
2022-10-19T07:20:52.063Z,9.37
2022-10-19T07:21:52.040Z,9.39
2022-10-19T07:22:52.009Z,9.44
2022-10-19T07:23:52.012Z,9.47
2022-10-19T07:24:52.029Z,9.52
2022-10-19T07:25:51.990Z,9.55
2022-10-19T07:26:51.970Z,9.63
2022-10-19T07:27:52.002Z,9.64
2022-10-19T07:28:51.941Z,9.63
2022-10-19T07:29:51.949Z,9.62
2022-10-19T07:30:51.922Z,9.62
2022-10-19T07:31:51.889Z,9.66
2022-10-19T07:32:51.889Z,9.72
2022-10-19T07:33:51.880Z,9.70
2022-10-19T07:34:51.879Z,9.70
2022-10-19T07:35:51.851Z,9.72
2022-10-19T07:36:51.840Z,9.74
2022-10-19T07:37:51.830Z,9.77
2022-10-19T07:38:51.868Z,9.80
2022-10-19T07:39:51.800Z,9.84
2022-10-19T07:40:51.784Z,9.88
2022-10-19T07:41:51.769Z,9.99
2022-10-19T07:42:51.759Z,10.06
2022-10-19T07:43:51.761Z,10.12
2022-10-19T07:44:51.750Z,10.15
2022-10-19T07:45:51.727Z,10.17
2022-10-19T07:46:51.709Z,10.23
2022-10-19T07:47:51.701Z,10.27
2022-10-19T07:48:51.680Z,10.28
2022-10-19T07:49:51.682Z,10.28
2022-10-19T07:50:51.907Z,10.33
2022-10-19T07:51:51.630Z,10.36
2022-10-19T07:52:51.650Z,10.39
2022-10-19T07:53:51.700Z,10.41
2022-10-19T07:54:51.600Z,10.45
2022-10-19T07:55:51.709Z,10.46
2022-10-19T07:56:51.571Z,10.46
2022-10-19T07:57:51.552Z,10.49
2022-10-19T07:58:51.534Z,10.51
2022-10-19T07:59:51.549Z,10.53
2022-10-19T08:00:51.520Z,10.53
2022-10-19T08:01:51.568Z,10.57
2022-10-19T08:03:11.789Z,10.58
2022-10-19T08:05:02.042Z,10.62
2022-10-19T08:05:52.453Z,10.65
2022-10-19T08:06:51.450Z,10.68
2022-10-19T08:07:51.432Z,10.69
2022-10-19T08:08:51.510Z,10.76
2022-10-19T08:09:53.670Z,10.79
2022-10-19T08:10:51.374Z,10.84
2022-10-19T08:11:51.380Z,10.84
2022-10-19T08:12:51.385Z,10.83
2022-10-19T08:13:51.361Z,10.82
2022-10-19T08:14:51.330Z,10.87
2022-10-19T08:15:51.321Z,10.90
2022-10-19T08:16:51.301Z,10.86
2022-10-19T08:17:51.291Z,10.82
2022-10-19T08:18:51.310Z,10.80
2022-10-19T08:19:51.281Z,10.76
2022-10-19T08:20:51.252Z,10.82
2022-10-19T08:21:51.250Z,10.89
2022-10-19T08:22:55.101Z,10.94
2022-10-19T08:23:52.231Z,11.02
2022-10-19T08:24:51.210Z,11.08
2022-10-19T08:25:51.222Z,11.16
2022-10-19T08:26:51.281Z,11.19
2022-10-19T08:27:51.423Z,11.26
2022-10-19T08:28:51.309Z,11.33
2022-10-19T08:29:51.171Z,11.38
2022-10-19T08:30:51.111Z,11.41
2022-10-19T08:31:51.112Z,11.49
2022-10-19T08:32:51.091Z,11.52
2022-10-19T08:33:51.085Z,11.55
2022-10-19T08:34:51.081Z,11.59
2022-10-19T08:35:51.071Z,11.67
2022-10-19T08:36:51.052Z,11.70
2022-10-19T08:37:51.615Z,11.73
2022-10-19T08:38:51.013Z,11.77
2022-10-19T08:39:51.048Z,11.81
2022-10-19T08:40:51.003Z,11.86
2022-10-19T08:41:51.061Z,11.89
2022-10-19T08:42:50.974Z,11.93
2022-10-19T08:43:50.971Z,11.91
2022-10-19T08:44:50.955Z,11.91
2022-10-19T08:45:50.944Z,11.96
2022-10-19T08:46:50.891Z,12.00
2022-10-19T08:47:50.902Z,12.07
2022-10-19T08:48:50.882Z,12.10
2022-10-19T08:49:50.891Z,12.15
2022-10-19T08:50:50.851Z,12.14
2022-10-19T08:51:50.850Z,12.17
2022-10-19T08:52:50.833Z,12.21
2022-10-19T08:53:50.862Z,12.25
2022-10-19T08:54:50.814Z,12.28
2022-10-19T08:55:50.792Z,12.33
2022-10-19T08:56:52.051Z,12.37
2022-10-19T08:57:50.762Z,12.40
2022-10-19T08:58:50.745Z,12.43
2022-10-19T08:59:50.791Z,12.45
2022-10-19T09:00:50.812Z,12.50
2022-10-19T09:01:50.713Z,12.54
2022-10-19T09:02:50.705Z,12.57
2022-10-19T09:03:57.983Z,12.62
2022-10-19T09:04:51.692Z,12.65
2022-10-19T09:05:50.663Z,12.69
2022-10-19T09:06:50.673Z,12.72
2022-10-19T09:07:50.623Z,12.76
2022-10-19T09:08:50.708Z,12.80
2022-10-19T09:09:50.623Z,12.81
2022-10-19T09:10:50.587Z,12.84
2022-10-19T09:11:50.689Z,12.87
2022-10-19T09:12:53.877Z,12.91
2022-10-19T09:14:04.739Z,12.98
2022-10-19T09:14:51.561Z,13.01
2022-10-19T09:15:50.503Z,12.98
2022-10-19T09:16:53.032Z,13.01
2022-10-19T09:17:51.304Z,12.99
2022-10-19T09:18:50.595Z,12.99
2022-10-19T09:19:50.462Z,13.03
2022-10-19T09:20:50.473Z,13.06
2022-10-19T09:21:50.443Z,13.13
2022-10-19T09:22:50.452Z,13.20
2022-10-19T09:23:50.413Z,13.24
2022-10-19T09:24:50.384Z,13.28
2022-10-19T09:25:50.392Z,13.39
2022-10-19T09:26:50.374Z,13.46
2022-10-19T09:27:50.407Z,13.57
2022-10-19T09:28:50.344Z,13.67
2022-10-19T09:29:50.322Z,13.75
2022-10-19T09:30:50.355Z,13.79
2022-10-19T09:31:50.358Z,13.83
2022-10-19T09:32:50.375Z,13.86
2022-10-19T09:33:50.274Z,13.93
2022-10-19T09:34:50.264Z,13.94
2022-10-19T09:35:50.264Z,13.98
2022-10-19T09:36:51.073Z,14.03
2022-10-19T09:37:50.218Z,14.01
2022-10-19T09:38:50.226Z,14.00
2022-10-19T09:39:54.092Z,14.01
2022-10-19T09:40:51.219Z,14.03
2022-10-19T09:41:50.175Z,14.01
2022-10-19T09:42:50.243Z,13.94
2022-10-19T09:43:50.152Z,13.89
2022-10-19T09:44:50.820Z,13.82
2022-10-19T09:45:52.924Z,13.76
2022-10-19T09:46:52.554Z,13.68
2022-10-19T09:47:51.893Z,13.61
2022-10-19T09:48:50.327Z,13.50
2022-10-19T09:49:50.916Z,13.47
2022-10-19T09:50:50.067Z,13.43
2022-10-19T09:51:50.075Z,13.33
2022-10-19T09:52:50.046Z,13.26
2022-10-19T09:53:50.003Z,13.23
2022-10-19T09:54:49.997Z,13.21
2022-10-19T09:55:50.010Z,13.21
2022-10-19T09:56:50.536Z,13.21
2022-10-19T09:57:52.767Z,13.23
2022-10-19T09:58:49.981Z,13.23
2022-10-19T09:59:49.924Z,13.23
2022-10-19T10:00:49.927Z,13.24
2022-10-19T10:01:53.455Z,13.27
2022-10-19T10:02:49.902Z,13.27
2022-10-19T10:03:53.773Z,13.28
2022-10-19T10:04:51.054Z,13.26
2022-10-19T10:05:49.866Z,13.27
2022-10-19T10:06:49.824Z,13.27
2022-10-19T10:07:49.816Z,13.28
2022-10-19T10:08:49.857Z,13.27
2022-10-19T10:09:49.787Z,13.28
2022-10-19T10:10:49.777Z,13.31
2022-10-19T10:11:49.869Z,13.37
2022-10-19T10:12:49.756Z,13.39
2022-10-19T10:13:49.763Z,13.43
2022-10-19T10:14:49.730Z,13.52
2022-10-19T10:15:49.708Z,13.54
2022-10-19T10:16:49.716Z,13.55
2022-10-19T10:17:49.696Z,13.58
2022-10-19T10:18:49.667Z,13.60
2022-10-19T10:19:49.657Z,13.61
2022-10-19T10:20:49.663Z,13.64
2022-10-19T10:21:49.638Z,13.65
2022-10-19T10:22:49.618Z,13.67
2022-10-19T10:23:49.668Z,13.70
2022-10-19T10:24:49.858Z,13.71
2022-10-19T10:25:49.612Z,13.71
2022-10-19T10:26:49.658Z,13.75
2022-10-19T10:27:49.549Z,13.76
2022-10-19T10:28:49.536Z,13.76
2022-10-19T10:29:49.528Z,13.75
2022-10-19T10:30:49.505Z,13.75
2022-10-19T10:31:49.498Z,13.75
2022-10-19T10:32:49.598Z,13.75
2022-10-19T10:33:49.476Z,13.78
2022-10-19T10:34:53.047Z,13.76
2022-10-19T10:35:50.597Z,13.78
2022-10-19T10:36:49.445Z,13.79
2022-10-19T10:37:49.411Z,13.82
2022-10-19T10:38:49.435Z,13.87
2022-10-19T10:39:49.378Z,13.86
2022-10-19T10:40:49.381Z,13.89
2022-10-19T10:41:49.369Z,13.91
2022-10-19T10:42:49.347Z,13.94
2022-10-19T10:43:49.331Z,13.95
2022-10-19T10:44:49.308Z,13.95
2022-10-19T10:45:49.298Z,13.98
2022-10-19T10:46:49.314Z,14.00
2022-10-19T10:47:49.268Z,14.00
2022-10-19T10:48:50.380Z,14.01
2022-10-19T10:49:49.238Z,14.01
2022-10-19T10:50:49.231Z,14.05
2022-10-19T10:51:52.138Z,14.07
2022-10-19T10:52:49.199Z,14.08
2022-10-19T10:53:49.188Z,14.18
2022-10-19T10:54:49.179Z,14.23
2022-10-19T10:55:49.184Z,14.31
2022-10-19T10:56:49.149Z,14.34
2022-10-19T10:57:49.150Z,14.36
2022-10-19T10:58:49.236Z,14.38
2022-10-19T10:59:49.108Z,14.41
2022-10-19T11:00:49.176Z,14.48
2022-10-19T11:01:49.163Z,14.48
2022-10-19T11:02:49.226Z,14.49
2022-10-19T11:03:49.114Z,14.51
2022-10-19T11:04:52.158Z,14.55
2022-10-19T11:05:56.259Z,14.59
2022-10-19T11:06:49.033Z,14.67
2022-10-19T11:07:49.026Z,14.73
2022-10-19T11:08:49.043Z,14.78
2022-10-19T11:09:48.968Z,14.85
2022-10-19T11:10:49.005Z,14.92
2022-10-19T11:11:48.978Z,15.02
2022-10-19T11:12:48.950Z,15.02
2022-10-19T11:13:48.933Z,14.96
2022-10-19T11:14:48.932Z,14.93
2022-10-19T11:15:48.934Z,14.93
2022-10-19T11:16:48.879Z,14.92
2022-10-19T11:17:48.881Z,14.92
2022-10-19T11:18:48.829Z,14.94
2022-10-19T11:19:48.829Z,14.93
2022-10-19T11:20:48.858Z,14.93
2022-10-19T11:21:48.800Z,14.93
2022-10-19T11:22:48.919Z,14.93
2022-10-19T11:23:48.810Z,14.90
2022-10-19T11:24:48.890Z,14.90
2022-10-19T11:25:48.771Z,14.87
2022-10-19T11:26:48.749Z,14.81
2022-10-19T11:27:48.721Z,14.79
2022-10-19T11:28:48.739Z,14.81
2022-10-19T11:29:48.699Z,14.81
2022-10-19T11:30:50.655Z,14.79
2022-10-19T11:31:48.679Z,14.78
2022-10-19T11:32:48.858Z,14.78
2022-10-19T11:33:48.686Z,14.78
2022-10-19T11:34:48.697Z,14.74
2022-10-19T11:35:48.733Z,14.74
2022-10-19T11:36:48.619Z,14.73
2022-10-19T11:38:00.461Z,14.70
2022-10-19T11:38:49.620Z,14.73
2022-10-19T11:39:48.601Z,14.74
2022-10-19T11:41:06.044Z,14.74
2022-10-19T11:41:49.587Z,14.78
2022-10-19T11:42:48.612Z,14.81
2022-10-19T11:43:48.571Z,14.82
2022-10-19T11:44:48.672Z,14.86
2022-10-19T11:45:48.527Z,14.86
2022-10-19T11:46:48.541Z,14.87
2022-10-19T11:47:48.476Z,14.87
2022-10-19T11:48:51.675Z,14.87
2022-10-19T11:49:49.433Z,14.92
2022-10-19T11:50:54.184Z,14.99
2022-10-19T11:51:49.413Z,15.07
2022-10-19T11:52:48.435Z,15.14
2022-10-19T11:53:48.442Z,15.22
2022-10-19T11:54:48.462Z,15.30
2022-10-19T11:55:48.666Z,15.37
2022-10-19T11:57:03.284Z,15.44
2022-10-19T11:57:49.358Z,15.51
2022-10-19T11:58:48.405Z,15.60
2022-10-19T11:59:48.292Z,15.67
2022-10-19T12:00:48.390Z,15.73
2022-10-19T12:01:48.388Z,15.81
2022-10-19T12:02:48.260Z,15.84
2022-10-19T12:03:48.321Z,15.88
2022-10-19T12:04:48.240Z,15.88
2022-10-19T12:05:48.263Z,15.85
2022-10-19T12:06:48.240Z,15.87
2022-10-19T12:07:48.312Z,15.87
2022-10-19T12:08:50.091Z,15.87
2022-10-19T12:09:48.251Z,15.87
2022-10-19T12:10:48.161Z,15.87
2022-10-19T12:11:48.279Z,15.91
2022-10-19T12:12:48.153Z,15.98
2022-10-19T12:13:48.115Z,16.02
2022-10-19T12:14:48.121Z,16.06
2022-10-19T12:15:49.280Z,16.06
2022-10-19T12:16:48.098Z,16.06
2022-10-19T12:17:48.041Z,16.08
2022-10-19T12:18:48.059Z,16.03
2022-10-19T12:19:48.090Z,16.02
2022-10-19T12:20:48.243Z,16.00
2022-10-19T12:21:47.992Z,16.00
2022-10-19T12:22:48.172Z,16.00
2022-10-19T12:23:47.972Z,15.98
2022-10-19T12:24:47.982Z,15.98
2022-10-19T12:25:48.131Z,15.98
2022-10-19T12:26:47.946Z,15.98
2022-10-19T12:27:48.080Z,15.96
2022-10-19T12:28:47.914Z,15.96
2022-10-19T12:29:47.886Z,15.96
2022-10-19T12:30:47.864Z,15.98
2022-10-19T12:31:47.863Z,15.98
2022-10-19T12:32:52.015Z,16.05
2022-10-19T12:33:48.834Z,16.03
2022-10-19T12:34:47.848Z,16.05
2022-10-19T12:35:47.803Z,16.06
2022-10-19T12:36:47.798Z,16.10
2022-10-19T12:37:47.782Z,16.22
2022-10-19T12:38:50.742Z,16.31
2022-10-19T12:39:47.767Z,16.37
2022-10-19T12:40:47.724Z,16.41
2022-10-19T12:41:47.734Z,16.44
2022-10-19T12:42:47.703Z,16.49
2022-10-19T12:43:47.705Z,16.55
2022-10-19T12:44:47.690Z,16.57
2022-10-19T12:45:47.675Z,16.61
2022-10-19T12:46:51.291Z,16.68
2022-10-19T12:47:48.644Z,16.68
2022-10-19T12:48:47.637Z,16.68
2022-10-19T12:49:47.625Z,16.69
2022-10-19T12:50:47.779Z,16.77
2022-10-19T12:51:47.613Z,16.76
2022-10-19T12:52:47.605Z,16.68
2022-10-19T12:53:47.565Z,16.58
2022-10-19T12:54:47.544Z,16.55
2022-10-19T12:55:47.574Z,16.54
2022-10-19T12:56:47.655Z,16.58
2022-10-19T12:57:47.496Z,16.64
2022-10-19T12:58:48.167Z,16.65
2022-10-19T12:59:47.509Z,16.72
2022-10-19T13:00:47.507Z,16.77
2022-10-19T13:01:47.463Z,16.82
2022-10-19T13:02:47.446Z,16.82
2022-10-19T13:03:47.427Z,16.82
2022-10-19T13:04:47.435Z,16.80
2022-10-19T13:05:47.418Z,16.74